createdAt,value
2018-08-04T00:01:18.888Z,4.53
2018-08-04T00:03:46.810Z,4.13
2018-08-04T00:06:30.964Z,4.30
2018-08-04T00:08:58.865Z,4.10
2018-08-04T00:11:26.745Z,4.40
2018-08-04T00:13:54.823Z,4.47
2018-08-04T00:16:22.805Z,4.30
2018-08-04T00:18:50.733Z,4.73
2018-08-04T00:21:18.564Z,4.17
2018-08-04T00:23:46.404Z,4.23
2018-08-04T00:26:14.323Z,4.27
2018-08-04T00:28:42.251Z,4.60
2018-08-04T00:31:10.140Z,4.07
2018-08-04T00:33:38.088Z,4.90
2018-08-04T00:36:06.130Z,4.20
2018-08-04T00:38:34.007Z,4.27
2018-08-04T00:41:02.057Z,4.57
2018-08-04T00:43:29.954Z,4.47
2018-08-04T00:45:57.830Z,4.43
2018-08-04T00:48:25.758Z,4.03
2018-08-04T00:50:53.678Z,5.10
2018-08-04T00:53:21.622Z,3.80
2018-08-04T00:55:49.526Z,4.33
2018-08-04T00:58:17.379Z,4.03
2018-08-04T01:00:45.333Z,4.73
2018-08-04T01:03:13.237Z,4.33
2018-08-04T01:05:41.248Z,4.53
2018-08-04T01:08:09.257Z,4.47
2018-08-04T01:10:37.381Z,4.00
2018-08-04T01:13:05.410Z,4.30
2018-08-04T01:15:33.197Z,4.40
2018-08-04T01:18:01.179Z,4.50
2018-08-04T01:20:29.146Z,4.07
2018-08-04T01:22:57.045Z,4.10
2018-08-04T01:25:24.939Z,4.50
2018-08-04T01:27:52.839Z,4.23
2018-08-04T01:30:20.778Z,3.87
2018-08-04T01:32:48.750Z,4.93
2018-08-04T01:35:16.620Z,4.13
2018-08-04T01:37:44.614Z,4.47
2018-08-04T01:40:12.808Z,4.17
2018-08-04T01:42:40.747Z,3.97
2018-08-04T01:45:08.718Z,4.17
2018-08-04T01:47:36.611Z,4.23
2018-08-04T01:50:04.920Z,4.30
2018-08-04T01:52:32.852Z,4.07
2018-08-04T01:55:00.901Z,4.00
2018-08-04T01:57:28.830Z,3.77
2018-08-04T01:59:56.720Z,4.57
2018-08-04T02:02:24.606Z,4.43
2018-08-04T02:04:52.492Z,3.70
2018-08-04T02:07:20.553Z,4.10
2018-08-04T02:09:48.407Z,3.93
2018-08-04T02:12:16.400Z,4.50
2018-08-04T02:14:44.422Z,4.10
2018-08-04T02:17:12.338Z,4.53
2018-08-04T02:19:40.268Z,4.80
2018-08-04T02:22:08.248Z,4.37
2018-08-04T02:24:36.078Z,4.03
2018-08-04T02:27:04.267Z,3.67
2018-08-04T02:29:32.225Z,4.23
2018-08-04T02:32:00.175Z,4.17
2018-08-04T02:34:28.092Z,4.53
2018-08-04T02:36:56.030Z,4.10
2018-08-04T02:39:23.973Z,3.90
2018-08-04T02:41:51.956Z,3.93
2018-08-04T02:44:19.856Z,3.77
2018-08-04T02:46:47.766Z,3.97
2018-08-04T02:49:15.750Z,3.93
2018-08-04T02:51:43.643Z,3.67
2018-08-04T02:54:11.501Z,3.70
2018-08-04T02:56:39.392Z,4.17
2018-08-04T02:59:07.334Z,3.73
2018-08-04T03:01:35.198Z,3.97
2018-08-04T03:04:03.138Z,3.50
2018-08-04T03:06:31.154Z,4.27
2018-08-04T03:08:59.127Z,4.90
2018-08-04T03:11:27.093Z,4.27
2018-08-04T03:13:55.013Z,3.93
2018-08-04T03:16:22.959Z,4.33
2018-08-04T03:18:51.106Z,4.00
2018-08-04T03:21:19.009Z,4.13
2018-08-04T03:23:46.902Z,4.20
2018-08-04T03:26:14.737Z,3.80
2018-08-04T03:28:42.658Z,4.20
2018-08-04T03:31:10.537Z,3.70
2018-08-04T03:33:38.447Z,3.90
2018-08-04T03:36:06.427Z,3.57
2018-08-04T03:38:34.298Z,3.77
2018-08-04T03:41:02.170Z,3.67
2018-08-04T03:43:30.119Z,3.50
2018-08-04T03:45:58.011Z,3.97
2018-08-04T03:48:25.908Z,3.63
2018-08-04T03:50:54.234Z,3.47
2018-08-04T03:53:22.186Z,4.43
2018-08-04T03:55:56.873Z,3.93
2018-08-04T03:58:24.943Z,3.77
2018-08-04T04:00:52.866Z,4.10
2018-08-04T04:03:20.746Z,3.57
2018-08-04T04:05:48.777Z,3.80
2018-08-04T04:08:16.770Z,3.73
2018-08-04T04:10:44.596Z,3.57
2018-08-04T04:13:12.548Z,3.43
2018-08-04T04:15:40.455Z,3.50
2018-08-04T04:18:08.409Z,3.67
2018-08-04T04:20:36.437Z,3.27
2018-08-04T04:23:04.427Z,3.70
2018-08-04T04:25:32.336Z,3.53
2018-08-04T04:28:00.348Z,3.53
2018-08-04T04:30:28.234Z,3.60
2018-08-04T04:32:56.166Z,4.07
2018-08-04T04:35:24.156Z,3.53
2018-08-04T04:37:52.106Z,3.87
2018-08-04T04:40:19.997Z,3.37
2018-08-04T04:42:47.860Z,4.03
2018-08-04T04:45:15.854Z,3.13
2018-08-04T04:47:43.752Z,3.20
2018-08-04T04:50:11.722Z,3.93
2018-08-04T04:52:39.697Z,3.50
2018-08-04T04:55:07.697Z,3.63
2018-08-04T04:57:35.528Z,3.63
2018-08-04T05:00:03.945Z,3.80
2018-08-04T05:02:31.810Z,3.80
2018-08-04T05:04:59.729Z,3.40
2018-08-04T05:07:27.691Z,3.90
2018-08-04T05:09:55.668Z,3.17
2018-08-04T05:12:23.580Z,3.33
2018-08-04T05:14:51.483Z,3.73
2018-08-04T05:17:19.422Z,2.83
2018-08-04T05:19:47.461Z,3.40
2018-08-04T05:22:15.175Z,3.33
2018-08-04T05:24:43.082Z,3.43
2018-08-04T05:27:11.007Z,3.50
2018-08-04T05:29:38.917Z,3.07
2018-08-04T05:32:07.044Z,3.40
2018-08-04T05:34:34.911Z,3.10
2018-08-04T05:37:02.803Z,3.30
2018-08-04T05:39:30.726Z,3.00
2018-08-04T05:41:58.654Z,3.27
2018-08-04T05:44:26.618Z,3.20
2018-08-04T05:46:54.536Z,3.53
2018-08-04T05:49:22.478Z,3.77
2018-08-04T05:51:50.426Z,3.10
2018-08-04T05:54:18.617Z,3.30
2018-08-04T05:56:46.381Z,3.13
2018-08-04T05:59:14.276Z,3.20
2018-08-04T06:01:42.575Z,3.17
2018-08-04T06:04:10.462Z,2.93
2018-08-04T06:06:38.609Z,3.13
2018-08-04T06:09:08.845Z,3.00
2018-08-04T06:11:37.048Z,3.00
2018-08-04T06:14:05.121Z,3.43
2018-08-04T06:16:33.184Z,3.30
2018-08-04T06:19:01.130Z,3.50
2018-08-04T06:21:29.031Z,3.27
2018-08-04T06:23:56.956Z,3.90
2018-08-04T06:26:24.993Z,2.90
2018-08-04T06:28:52.993Z,3.20
2018-08-04T06:31:21.068Z,3.63
2018-08-04T06:33:49.041Z,3.10
2018-08-04T06:36:17.025Z,3.27
2018-08-04T06:38:45.002Z,3.53
2018-08-04T06:41:13.000Z,3.67
2018-08-04T06:43:40.895Z,3.10
2018-08-04T06:46:08.836Z,3.47
2018-08-04T06:48:36.836Z,4.00
2018-08-04T06:51:04.778Z,3.27
2018-08-04T06:53:32.694Z,3.60
2018-08-04T06:56:00.620Z,3.80
2018-08-04T06:58:28.608Z,3.80
2018-08-04T07:00:56.579Z,3.13
2018-08-04T07:03:24.567Z,3.63
2018-08-04T07:05:52.527Z,3.43
2018-08-04T07:08:20.512Z,3.73
2018-08-04T07:10:48.480Z,3.57
2018-08-04T07:13:16.416Z,3.87
2018-08-04T07:15:44.306Z,3.53
2018-08-04T07:18:12.226Z,3.27
2018-08-04T07:20:40.173Z,3.20
2018-08-04T07:23:08.076Z,3.30
2018-08-04T07:25:36.031Z,3.50
2018-08-04T07:28:04.011Z,3.27
2018-08-04T07:30:31.945Z,3.33
2018-08-04T07:32:59.903Z,3.70
2018-08-04T07:35:27.830Z,3.53
2018-08-04T07:37:55.846Z,3.50
2018-08-04T07:40:23.801Z,3.77
2018-08-04T07:42:51.685Z,3.33
2018-08-04T07:45:19.628Z,3.70
2018-08-04T07:47:47.534Z,3.47
2018-08-04T07:50:15.541Z,3.62
2018-08-04T07:52:43.550Z,4.12
2018-08-04T07:55:11.505Z,3.62
2018-08-04T07:57:39.433Z,3.60
2018-08-04T08:00:08.033Z,3.52
2018-08-04T08:02:35.843Z,3.25
2018-08-04T08:05:03.827Z,3.62
2018-08-04T08:07:31.718Z,3.35
2018-08-04T08:09:59.607Z,3.33
2018-08-04T08:12:27.514Z,3.95
2018-08-04T08:14:55.473Z,3.12
2018-08-04T08:17:23.334Z,3.00
2018-08-04T08:19:51.266Z,3.12
2018-08-04T08:22:20.618Z,2.80
2018-08-04T08:24:48.333Z,3.27
2018-08-04T08:27:16.132Z,3.15
2018-08-04T08:29:44.086Z,2.77
2018-08-04T08:32:12.039Z,2.67
2018-08-04T08:34:39.918Z,2.67
2018-08-04T08:37:07.857Z,2.52
2018-08-04T08:39:35.773Z,2.67
2018-08-04T08:42:03.751Z,3.08
2018-08-04T08:44:31.625Z,2.30
2018-08-04T08:46:59.421Z,2.58
2018-08-04T08:49:27.324Z,2.50
2018-08-04T08:51:55.254Z,2.50
2018-08-04T08:54:26.540Z,2.45
2018-08-04T08:56:54.469Z,2.62
2018-08-04T08:59:22.403Z,2.72
2018-08-04T09:01:50.381Z,2.27
2018-08-04T09:04:18.350Z,2.80
2018-08-04T09:06:46.301Z,2.27
2018-08-04T09:09:14.037Z,2.60
2018-08-04T09:11:41.859Z,2.60
2018-08-04T09:14:09.785Z,2.30
2018-08-04T09:16:37.759Z,2.60
2018-08-04T09:19:06.008Z,2.70
2018-08-04T09:21:33.929Z,2.60
2018-08-04T09:24:01.803Z,2.80
2018-08-04T09:26:29.715Z,2.50
2018-08-04T09:28:57.568Z,2.70
2018-08-04T09:31:25.463Z,2.55
2018-08-04T09:33:53.107Z,2.90
2018-08-04T09:36:21.066Z,2.77
2018-08-04T09:38:48.992Z,2.47
2018-08-04T09:41:16.902Z,3.02
2018-08-04T09:43:44.828Z,2.70
2018-08-04T09:46:12.797Z,3.02
2018-08-04T09:48:40.716Z,3.02
2018-08-04T09:51:08.578Z,2.70
2018-08-04T09:53:36.523Z,2.40
2018-08-04T09:56:04.437Z,2.47
2018-08-04T09:58:32.202Z,2.95
2018-08-04T10:01:05.609Z,2.45
2018-08-04T10:03:33.504Z,2.30
2018-08-04T10:06:01.349Z,2.58
2018-08-04T10:08:29.224Z,2.67
2018-08-04T10:10:57.050Z,2.42
2018-08-04T10:13:24.967Z,2.55
2018-08-04T10:15:52.824Z,2.58
2018-08-04T10:18:20.629Z,2.75
2018-08-04T10:20:48.527Z,2.45
2018-08-04T10:23:16.479Z,2.27
2018-08-04T10:25:44.449Z,2.00
2018-08-04T10:28:12.295Z,2.55
2018-08-04T10:30:40.235Z,2.98
2018-08-04T10:33:08.065Z,2.37
2018-08-04T10:35:35.864Z,2.60
2018-08-04T10:38:03.775Z,2.62
2018-08-04T10:40:31.517Z,2.45
2018-08-04T10:42:59.513Z,2.60
2018-08-04T10:45:27.335Z,2.90
2018-08-04T10:47:55.291Z,2.87
2018-08-04T10:50:23.153Z,2.58
2018-08-04T10:52:51.159Z,2.58
2018-08-04T10:55:19.079Z,2.47
2018-08-04T10:57:46.965Z,2.77
2018-08-04T11:00:14.813Z,2.72
2018-08-04T11:02:42.603Z,3.25
2018-08-04T11:05:10.456Z,2.85
2018-08-04T11:07:38.341Z,2.90
2018-08-04T11:10:06.603Z,3.92
2018-08-04T11:12:35.290Z,3.87
2018-08-04T11:15:03.243Z,2.85
2018-08-04T11:17:31.198Z,3.67
2018-08-04T11:19:59.000Z,2.90
2018-08-04T11:22:26.854Z,3.05
2018-08-04T11:24:54.819Z,3.02
2018-08-04T11:27:22.722Z,3.08
2018-08-04T11:29:50.615Z,3.17
2018-08-04T11:32:18.292Z,2.37
2018-08-04T11:34:46.146Z,2.92
2018-08-04T11:37:14.054Z,2.60
2018-08-04T11:39:42.024Z,3.00
2018-08-04T11:42:09.915Z,2.80
2018-08-04T11:44:37.826Z,3.05
2018-08-04T11:47:05.899Z,3.17
2018-08-04T11:49:33.805Z,4.47
2018-08-04T11:52:01.642Z,4.03
2018-08-04T11:54:29.633Z,3.00
2018-08-04T11:56:57.649Z,3.37
2018-08-04T11:59:25.400Z,2.90
2018-08-04T12:01:53.221Z,3.55
2018-08-04T12:04:21.170Z,3.67
2018-08-04T12:06:49.041Z,3.45
2018-08-04T12:09:16.932Z,3.80
2018-08-04T12:11:44.922Z,3.42
2018-08-04T12:14:12.772Z,3.05
2018-08-04T12:16:40.613Z,2.47
2018-08-04T12:19:08.649Z,2.85
2018-08-04T12:21:36.617Z,2.87
2018-08-04T12:24:04.319Z,3.22
2018-08-04T12:26:32.245Z,3.00
2018-08-04T12:29:00.128Z,2.58
2018-08-04T12:31:27.963Z,2.75
2018-08-04T12:33:55.856Z,2.83
2018-08-04T12:36:23.778Z,2.77
2018-08-04T12:38:51.855Z,2.98
2018-08-04T12:41:19.735Z,3.15
2018-08-04T12:43:47.679Z,2.67
2018-08-04T12:46:15.656Z,2.67
2018-08-04T12:48:43.514Z,2.35
2018-08-04T12:51:11.565Z,2.45
2018-08-04T12:53:39.413Z,2.35
2018-08-04T12:56:07.240Z,2.70
2018-08-04T12:58:35.069Z,2.70
2018-08-04T13:01:03.049Z,2.70
2018-08-04T13:03:30.921Z,3.22
2018-08-04T13:05:58.818Z,2.50
2018-08-04T13:08:26.743Z,2.80
2018-08-04T13:10:54.649Z,2.80
2018-08-04T13:13:22.633Z,3.00
2018-08-04T13:15:50.320Z,2.67
2018-08-04T13:18:18.234Z,2.75
2018-08-04T13:20:46.074Z,2.80
2018-08-04T13:23:13.941Z,2.52
2018-08-04T13:25:41.749Z,2.80
2018-08-04T13:28:09.739Z,2.65
2018-08-04T13:30:37.633Z,2.90
2018-08-04T13:33:05.571Z,2.95
2018-08-04T13:35:33.567Z,3.00
2018-08-04T13:38:01.437Z,3.02
2018-08-04T13:40:29.967Z,2.90
2018-08-04T13:42:58.109Z,2.95
2018-08-04T13:45:25.959Z,3.05
2018-08-04T13:47:53.894Z,2.40
2018-08-04T13:50:21.843Z,2.67
2018-08-04T13:52:49.845Z,2.65
2018-08-04T13:55:17.802Z,2.30
2018-08-04T13:57:45.871Z,2.85
2018-08-04T14:00:13.811Z,3.02
2018-08-04T14:02:41.902Z,2.90
2018-08-04T14:05:09.906Z,2.60
2018-08-04T14:07:37.853Z,3.00
2018-08-04T14:10:05.910Z,2.75
2018-08-04T14:12:39.837Z,2.92
2018-08-04T14:15:08.094Z,3.10
2018-08-04T14:17:36.121Z,2.45
2018-08-04T14:20:04.221Z,2.42
2018-08-04T14:22:32.227Z,2.00
2018-08-04T14:25:00.200Z,2.65
2018-08-04T14:27:28.163Z,2.75
2018-08-04T14:29:56.019Z,2.30
2018-08-04T14:32:24.054Z,2.27
2018-08-04T14:34:52.195Z,2.62
2018-08-04T14:37:20.022Z,2.50
2018-08-04T14:39:47.972Z,2.50
2018-08-04T14:42:16.042Z,2.58
2018-08-04T14:44:43.981Z,2.77
2018-08-04T14:47:11.900Z,2.40
2018-08-04T14:49:39.946Z,2.60
2018-08-04T14:52:07.894Z,2.30
2018-08-04T14:54:35.910Z,2.60
2018-08-04T14:57:03.935Z,2.62
2018-08-04T14:59:31.733Z,2.25
2018-08-04T15:01:59.608Z,2.62
2018-08-04T15:04:27.669Z,2.10
2018-08-04T15:06:55.602Z,2.77
2018-08-04T15:09:23.566Z,2.87
2018-08-04T15:11:51.597Z,2.27
2018-08-04T15:14:19.417Z,2.37
2018-08-04T15:16:47.310Z,2.70
2018-08-04T15:19:15.264Z,3.92
2018-08-04T15:21:43.264Z,2.92
2018-08-04T15:24:11.102Z,2.67
2018-08-04T15:26:38.944Z,2.47
2018-08-04T15:29:06.818Z,3.87
2018-08-04T15:31:34.708Z,3.50
2018-08-04T15:34:02.654Z,2.80
2018-08-04T15:36:30.674Z,2.08
2018-08-04T15:38:58.566Z,2.30
2018-08-04T15:41:26.316Z,2.30
2018-08-04T15:43:54.547Z,2.35
2018-08-04T15:46:22.878Z,2.67
2018-08-04T15:48:50.796Z,3.12
2018-08-04T15:51:18.697Z,2.45
2018-08-04T15:53:46.595Z,2.62
2018-08-04T15:56:14.477Z,2.37
2018-08-04T15:58:42.421Z,2.15
2018-08-04T16:01:10.368Z,2.52
2018-08-04T16:03:38.275Z,2.27
2018-08-04T16:06:06.348Z,2.20
2018-08-04T16:08:34.239Z,2.10
2018-08-04T16:11:02.184Z,2.52
2018-08-04T16:13:30.152Z,2.70
2018-08-04T16:15:57.804Z,2.42
2018-08-04T16:18:25.710Z,3.20
2018-08-04T16:20:53.610Z,2.12
2018-08-04T16:23:21.510Z,2.90
2018-08-04T16:25:49.475Z,2.45
2018-08-04T16:28:17.464Z,3.77
2018-08-04T16:30:45.365Z,3.17
2018-08-04T16:33:13.361Z,3.10
2018-08-04T16:35:41.994Z,2.80
2018-08-04T16:38:09.826Z,2.50
2018-08-04T16:40:37.589Z,2.87
2018-08-04T16:43:05.594Z,5.35
2018-08-04T16:45:33.467Z,3.55
2018-08-04T16:48:01.422Z,2.80
2018-08-04T16:50:29.272Z,3.33
2018-08-04T16:52:57.178Z,3.10
2018-08-04T16:55:25.461Z,3.10
2018-08-04T16:57:53.549Z,4.10
2018-08-04T17:00:21.508Z,3.65
2018-08-04T17:02:49.481Z,3.62
2018-08-04T17:05:17.456Z,3.00
2018-08-04T17:07:45.999Z,2.95
2018-08-04T17:10:14.426Z,4.08
2018-08-04T17:12:42.524Z,4.17
2018-08-04T17:15:10.558Z,4.20
2018-08-04T17:17:38.599Z,5.87
2018-08-04T17:22:41.276Z,5.40
2018-08-04T17:25:09.233Z,4.58
2018-08-04T17:27:37.286Z,4.20
2018-08-04T17:30:05.768Z,3.92
2018-08-04T17:32:33.527Z,3.92
2018-08-04T17:35:01.505Z,4.80
2018-08-04T17:37:29.509Z,3.92
2018-08-04T17:39:57.339Z,4.25
2018-08-04T17:42:25.312Z,3.02
2018-08-04T17:44:53.415Z,4.10
2018-08-04T17:47:21.410Z,4.53
2018-08-04T17:49:49.494Z,3.83
2018-08-04T17:52:17.598Z,3.40
2018-08-04T17:54:45.534Z,3.70
2018-08-04T17:57:13.573Z,3.40
2018-08-04T17:59:41.436Z,5.85
2018-08-04T18:02:09.388Z,3.47
2018-08-04T18:04:37.511Z,3.83
2018-08-04T18:07:05.769Z,3.83
2018-08-04T18:09:33.920Z,3.55
2018-08-04T18:12:01.943Z,3.35
2018-08-04T18:14:30.941Z,2.92
2018-08-04T18:16:58.846Z,3.40
2018-08-04T18:19:26.842Z,3.08
2018-08-04T18:21:54.790Z,3.58
2018-08-04T18:24:23.235Z,3.12
2018-08-04T18:26:51.464Z,2.65
2018-08-04T18:29:19.528Z,2.70
2018-08-04T18:31:47.578Z,3.27
2018-08-04T18:34:15.552Z,3.17
2018-08-04T18:36:43.479Z,4.03
2018-08-04T18:39:12.190Z,3.83
2018-08-04T18:41:40.808Z,3.33
2018-08-04T18:44:08.920Z,3.10
2018-08-04T18:46:37.078Z,3.60
2018-08-04T18:49:05.204Z,3.27
2018-08-04T18:51:33.181Z,3.77
2018-08-04T18:54:01.228Z,3.40
2018-08-04T18:56:29.297Z,3.60
2018-08-04T18:58:57.248Z,3.40
2018-08-04T19:01:25.398Z,2.80
2018-08-04T19:03:53.411Z,3.17
2018-08-04T19:06:21.493Z,3.00
2018-08-04T19:08:49.743Z,2.83
2018-08-04T19:11:24.904Z,3.13
2018-08-04T19:13:53.128Z,2.80
2018-08-04T19:16:21.286Z,2.60
2018-08-04T19:18:49.344Z,2.97
2018-08-04T19:21:17.421Z,2.73
2018-08-04T19:23:45.395Z,3.33
2018-08-04T19:26:13.501Z,3.37
2018-08-04T19:28:41.599Z,2.80
2018-08-04T19:31:09.523Z,2.80
2018-08-04T19:33:37.846Z,3.70
2018-08-04T19:36:06.103Z,2.80
2018-08-04T19:38:33.860Z,2.67
2018-08-04T19:41:01.820Z,3.17
2018-08-04T19:43:29.876Z,3.13
2018-08-04T19:45:57.740Z,3.47
2018-08-04T19:48:25.680Z,2.80
2018-08-04T19:50:53.894Z,2.60
2018-08-04T19:53:21.648Z,3.10
2018-08-04T19:55:49.579Z,2.57
2018-08-04T19:58:17.548Z,2.60
2018-08-04T20:00:45.772Z,2.90
2018-08-04T20:03:13.647Z,2.87
2018-08-04T20:05:41.539Z,2.40
2018-08-04T20:08:09.431Z,3.07
2018-08-04T20:10:37.406Z,2.90
2018-08-04T20:13:05.769Z,2.60
2018-08-04T20:15:33.961Z,2.87
2018-08-04T20:18:02.330Z,2.87
2018-08-04T20:20:31.041Z,2.90
2018-08-04T20:22:59.022Z,2.60
2018-08-04T20:25:26.923Z,3.67
2018-08-04T20:27:54.916Z,2.60
2018-08-04T20:30:22.762Z,2.93
2018-08-04T20:32:50.805Z,3.33
2018-08-04T20:35:18.805Z,3.10
2018-08-04T20:37:46.868Z,3.20
2018-08-04T20:40:14.825Z,3.17
2018-08-04T20:42:42.784Z,3.40
2018-08-04T20:45:10.743Z,3.67
2018-08-04T20:47:38.847Z,3.17
2018-08-04T20:50:06.903Z,3.50
2018-08-04T20:52:34.907Z,3.57
2018-08-04T20:55:03.411Z,3.30
2018-08-04T20:57:31.463Z,3.97
2018-08-04T20:59:59.447Z,3.40
2018-08-04T21:02:27.218Z,3.47
2018-08-04T21:04:55.119Z,3.93
2018-08-04T21:07:23.502Z,3.90
2018-08-04T21:09:51.732Z,3.87
2018-08-04T21:12:19.746Z,4.10
2018-08-04T21:14:47.703Z,4.00
2018-08-04T21:17:15.565Z,3.97
2018-08-04T21:19:43.513Z,4.30
2018-08-04T21:22:11.509Z,3.40
2018-08-04T21:24:40.312Z,4.00
2018-08-04T21:27:08.343Z,3.63
2018-08-04T21:29:36.364Z,4.20
2018-08-04T21:32:04.355Z,4.00
2018-08-04T21:34:32.333Z,3.83
2018-08-04T21:37:00.419Z,4.47
2018-08-04T21:39:30.386Z,3.70
2018-08-04T21:41:58.387Z,4.33
2018-08-04T21:44:26.427Z,4.07
2018-08-04T21:46:54.376Z,4.43
2018-08-04T21:49:25.639Z,4.23
2018-08-04T21:51:53.690Z,3.97
2018-08-04T21:54:21.642Z,3.90
2018-08-04T21:56:49.604Z,4.53
2018-08-04T21:59:17.565Z,4.20
2018-08-04T22:01:51.206Z,4.47
2018-08-04T22:04:19.010Z,4.50
2018-08-04T22:08:00.457Z,4.70
2018-08-04T22:10:28.622Z,4.20
2018-08-04T22:12:57.258Z,4.73
2018-08-04T22:15:25.252Z,4.97
2018-08-04T22:17:53.191Z,4.57
2018-08-04T22:20:21.981Z,4.93
2018-08-04T22:22:49.952Z,4.83
2018-08-04T22:25:19.189Z,4.97
2018-08-04T22:27:47.441Z,5.10
2018-08-04T22:30:16.728Z,5.63
2018-08-04T22:32:45.317Z,6.93
2018-08-04T22:35:13.282Z,6.60
2018-08-04T22:37:41.730Z,7.27
2018-08-04T22:40:10.885Z,7.60
2018-08-04T22:42:39.165Z,7.37
2018-08-04T22:45:52.143Z,7.07
2018-08-04T22:48:20.874Z,8.23
2018-08-04T22:50:48.974Z,7.97
2018-08-04T22:53:17.369Z,9.57
2018-08-04T22:55:45.274Z,8.83
2018-08-04T22:58:13.202Z,8.50
2018-08-04T23:00:43.275Z,9.10
2018-08-04T23:03:12.090Z,9.57
2018-08-04T23:05:40.115Z,10.17
2018-08-04T23:08:08.726Z,10.33
2018-08-04T23:10:37.559Z,10.17
2018-08-04T23:13:05.716Z,10.40
2018-08-04T23:15:33.748Z,10.70
2018-08-04T23:18:01.655Z,10.97
2018-08-04T23:20:29.701Z,10.77
2018-08-04T23:22:58.162Z,10.87
2018-08-04T23:25:26.149Z,10.90
2018-08-04T23:27:54.102Z,10.73
2018-08-04T23:30:22.137Z,12.00
2018-08-04T23:32:51.346Z,13.87
2018-08-04T23:35:19.594Z,15.93
2018-08-04T23:37:47.769Z,16.43
2018-08-04T23:40:15.720Z,15.00
2018-08-04T23:42:43.664Z,16.17
2018-08-04T23:45:11.816Z,16.97
2018-08-04T23:47:39.786Z,16.33
2018-08-04T23:50:07.826Z,16.13
2018-08-04T23:52:35.833Z,15.37
2018-08-04T23:55:03.977Z,15.80
2018-08-04T23:57:31.934Z,16.13
2018-08-04T23:59:59.934Z,14.93
